createdAt,value
2018-09-11T00:00:42.669Z,101142.52
2018-09-11T00:03:10.475Z,101135.67
2018-09-11T00:05:38.347Z,101134.28
2018-09-11T00:08:06.244Z,101139.05
2018-09-11T00:10:34.045Z,101138.69
2018-09-11T00:13:01.920Z,101132.55
2018-09-11T00:15:29.752Z,101137.86
2018-09-11T00:17:57.631Z,101138.49
2018-09-11T00:20:25.590Z,101136.83
2018-09-11T00:22:53.463Z,101130.85
2018-09-11T00:25:21.325Z,101134.94
2018-09-11T00:27:49.235Z,101134.24
2018-09-11T00:30:17.059Z,101135.09
2018-09-11T00:32:44.915Z,101129.20
2018-09-11T00:35:12.747Z,101132.45
2018-09-11T00:37:40.591Z,101128.17
2018-09-11T00:40:08.559Z,101135.73
2018-09-11T00:42:36.392Z,101142.13
2018-09-11T00:45:04.747Z,101138.67
2018-09-11T00:47:32.618Z,101139.45
2018-09-11T00:50:00.409Z,101140.83
2018-09-11T00:52:28.355Z,101135.81
2018-09-11T00:54:56.254Z,101141.34
2018-09-11T00:57:24.096Z,101141.58
2018-09-11T00:59:51.995Z,101147.52
2018-09-11T01:02:19.801Z,101141.80
2018-09-11T01:04:47.687Z,101148.98
2018-09-11T01:07:15.534Z,101151.93
2018-09-11T01:09:43.373Z,101152.99
2018-09-11T01:12:11.201Z,101159.28
2018-09-11T01:14:39.210Z,101158.57
2018-09-11T01:17:07.039Z,101161.83
2018-09-11T01:19:34.944Z,101165.99
2018-09-11T01:22:02.800Z,101171.73
2018-09-11T01:24:30.634Z,101163.11
2018-09-11T01:26:58.541Z,101168.75
2018-09-11T01:29:26.379Z,101171.80
2018-09-11T01:31:54.139Z,101169.33
2018-09-11T01:34:21.971Z,101167.54
2018-09-11T01:36:49.839Z,101169.78
2018-09-11T01:39:17.731Z,101167.53
2018-09-11T01:41:45.661Z,101167.05
2018-09-11T01:44:13.532Z,101165.53
2018-09-11T01:46:41.393Z,101171.00
2018-09-11T01:49:09.240Z,101171.28
2018-09-11T01:51:37.011Z,101174.08
2018-09-11T01:54:05.120Z,101177.92
2018-09-11T01:56:32.915Z,101179.73
2018-09-11T01:59:00.721Z,101184.83
2018-09-11T02:01:28.551Z,101184.79
2018-09-11T02:03:56.427Z,101184.42
2018-09-11T02:06:24.239Z,101188.80
2018-09-11T02:08:52.199Z,101182.87
2018-09-11T02:11:20.008Z,101178.50
2018-09-11T02:13:47.828Z,101184.00
2018-09-11T02:16:15.688Z,101187.05
2018-09-11T02:18:43.540Z,101194.57
2018-09-11T02:21:11.335Z,101198.70
2018-09-11T02:23:39.208Z,101197.03
2018-09-11T02:26:07.067Z,101195.84
2018-09-11T02:28:34.922Z,101199.23
2018-09-11T02:31:02.752Z,101202.42
2018-09-11T02:33:30.602Z,101206.82
2018-09-11T02:35:58.415Z,101203.95
2018-09-11T02:38:26.253Z,101214.58
2018-09-11T02:40:54.086Z,101210.84
2018-09-11T02:43:22.003Z,101218.09
2018-09-11T02:45:50.324Z,101215.89
2018-09-11T02:48:18.183Z,101216.09
2018-09-11T02:50:46.044Z,101218.55
2018-09-11T02:53:13.884Z,101222.42
2018-09-11T02:55:41.736Z,101232.41
2018-09-11T02:58:09.606Z,101228.45
2018-09-11T03:00:37.407Z,101231.53
2018-09-11T03:03:05.287Z,101224.95
2018-09-11T03:05:33.159Z,101223.45
2018-09-11T03:08:00.880Z,101233.19
2018-09-11T03:10:28.700Z,101231.88
2018-09-11T03:12:56.634Z,101229.62
2018-09-11T03:15:24.488Z,101235.98
2018-09-11T03:17:52.316Z,101240.53
2018-09-11T03:20:20.132Z,101253.02
2018-09-11T03:22:47.948Z,101246.47
2018-09-11T03:25:15.796Z,101254.36
2018-09-11T03:27:43.615Z,101265.02
2018-09-11T03:30:11.433Z,101266.51
2018-09-11T03:32:39.361Z,101260.83
2018-09-11T03:35:07.279Z,101264.92
2018-09-11T03:37:35.161Z,101260.37
2018-09-11T03:40:03.371Z,101251.31
2018-09-11T03:42:31.140Z,101249.84
2018-09-11T03:44:58.919Z,101247.14
2018-09-11T03:47:26.809Z,101241.27
2018-09-11T03:49:54.655Z,101245.04
2018-09-11T03:52:22.551Z,101242.83
2018-09-11T03:54:50.340Z,101242.69
2018-09-11T03:57:18.172Z,101250.55
2018-09-11T03:59:45.956Z,101247.80
2018-09-11T04:02:13.821Z,101255.88
2018-09-11T04:04:41.651Z,101246.96
2018-09-11T04:07:09.489Z,101248.92
2018-09-11T04:09:37.339Z,101245.38
2018-09-11T04:12:05.467Z,101246.30
2018-09-11T04:14:33.267Z,101249.50
2018-09-11T04:17:01.074Z,101258.00
2018-09-11T04:19:28.893Z,101255.41
2018-09-11T04:21:56.689Z,101259.58
2018-09-11T04:24:24.456Z,101254.03
2018-09-11T04:26:52.295Z,101252.81
2018-09-11T04:29:20.095Z,101254.33
2018-09-11T04:31:47.973Z,101251.44
2018-09-11T04:34:15.792Z,101249.94
2018-09-11T04:36:43.656Z,101254.73
2018-09-11T04:39:11.519Z,101261.53
2018-09-11T04:41:39.339Z,101256.67
2018-09-11T04:44:07.264Z,101252.22
2018-09-11T04:46:35.172Z,101250.33
2018-09-11T04:49:02.994Z,101240.04
2018-09-11T04:51:30.909Z,101238.53
2018-09-11T04:53:58.791Z,101238.84
2018-09-11T04:56:26.691Z,101244.77
2018-09-11T04:58:55.128Z,101243.09
2018-09-11T05:01:22.999Z,101250.34
2018-09-11T05:03:51.072Z,101256.90
2018-09-11T05:06:18.976Z,101260.00
2018-09-11T05:08:47.082Z,101261.75
2018-09-11T05:11:14.974Z,101262.38
2018-09-11T05:13:42.865Z,101253.45
2018-09-11T05:16:11.793Z,101256.83
2018-09-11T05:18:40.028Z,101251.41
2018-09-11T05:21:09.012Z,101253.63
2018-09-11T05:23:37.209Z,101249.73
2018-09-11T05:26:05.460Z,101256.83
2018-09-11T05:28:36.674Z,101257.28
2018-09-11T05:31:04.771Z,101261.60
2018-09-11T05:33:34.290Z,101270.36
2018-09-11T05:36:02.104Z,101272.80
2018-09-11T05:38:30.136Z,101276.02
2018-09-11T05:40:58.208Z,101281.41
2018-09-11T05:43:26.215Z,101278.98
2018-09-11T05:45:54.218Z,101284.69
2018-09-11T05:48:22.079Z,101289.27
2018-09-11T05:50:50.276Z,101292.91
2018-09-11T05:53:18.640Z,101295.11
2018-09-11T05:55:46.487Z,101300.06
2018-09-11T05:58:14.279Z,101303.50
2018-09-11T06:00:42.382Z,101306.67
2018-09-11T06:03:10.312Z,101304.38
2018-09-11T06:05:38.199Z,101309.33
2018-09-11T06:08:06.005Z,101304.92
2018-09-11T06:10:33.974Z,101303.70
2018-09-11T06:13:05.299Z,101299.85
2018-09-11T06:15:33.267Z,101299.36
2018-09-11T06:18:01.153Z,101302.22
2018-09-11T06:20:29.000Z,101305.06
2018-09-11T06:22:56.831Z,101304.95
2018-09-11T06:25:24.629Z,101302.17
2018-09-11T06:27:52.451Z,101308.64
2018-09-11T06:30:20.477Z,101301.13
2018-09-11T06:32:48.374Z,101310.17
2018-09-11T06:35:16.612Z,101303.30
2018-09-11T06:37:44.455Z,101305.22
2018-09-11T06:40:12.242Z,101299.36
2018-09-11T06:42:40.023Z,101295.55
2018-09-11T06:45:07.932Z,101294.64
2018-09-11T06:47:35.827Z,101298.88
2018-09-11T06:50:03.784Z,101304.94
2018-09-11T06:52:31.566Z,101305.31
2018-09-11T06:54:59.383Z,101300.61
2018-09-11T06:57:27.256Z,101304.65
2018-09-11T06:59:55.051Z,101297.12
2018-09-11T07:02:22.878Z,101297.31
2018-09-11T07:04:50.854Z,101299.17
2018-09-11T07:07:18.664Z,101298.08
2018-09-11T07:09:46.471Z,101295.75
2018-09-11T07:12:14.264Z,101300.20
2018-09-11T07:14:42.116Z,101298.65
2018-09-11T07:17:09.864Z,101302.56
2018-09-11T07:19:37.660Z,101306.61
2018-09-11T07:22:05.808Z,101290.30
2018-09-11T07:24:33.660Z,101301.94
2018-09-11T07:27:01.476Z,101298.63
2018-09-11T07:29:29.355Z,101303.31
2018-09-11T07:31:57.181Z,101306.68
2018-09-11T07:34:24.965Z,101308.16
2018-09-11T07:36:52.745Z,101310.87
2018-09-11T07:39:20.518Z,101315.98
2018-09-11T07:41:48.343Z,101311.98
2018-09-11T07:44:16.317Z,101312.18
2018-09-11T07:46:44.095Z,101315.13
2018-09-11T07:49:11.861Z,101311.31
2018-09-11T07:51:39.743Z,101309.87
2018-09-11T07:54:07.563Z,101308.99
2018-09-11T07:56:35.375Z,101306.38
2018-09-11T07:59:03.237Z,101314.53
2018-09-11T08:01:31.111Z,101317.06
2018-09-11T08:04:00.148Z,101319.85
2018-09-11T08:06:27.990Z,101314.36
2018-09-11T08:08:55.864Z,101317.73
2018-09-11T08:11:23.744Z,101318.84
2018-09-11T08:13:51.615Z,101321.07
2018-09-11T08:16:19.469Z,101320.81
2018-09-11T08:18:47.248Z,101319.17
2018-09-11T08:21:15.064Z,101316.97
2018-09-11T08:23:42.913Z,101324.19
2018-09-11T08:26:10.758Z,101321.97
2018-09-11T08:28:38.660Z,101322.82
2018-09-11T08:31:06.533Z,101319.78
2018-09-11T08:33:34.367Z,101311.44
2018-09-11T08:36:02.216Z,101311.17
2018-09-11T08:38:30.094Z,101301.73
2018-09-11T08:40:57.931Z,101306.42
2018-09-11T08:43:25.720Z,101305.81
2018-09-11T08:45:53.591Z,101303.55
2018-09-11T08:48:21.460Z,101297.71
2018-09-11T08:50:49.293Z,101299.61
2018-09-11T08:53:17.201Z,101305.51
2018-09-11T08:55:45.176Z,101303.57
2018-09-11T08:58:13.115Z,101308.09
2018-09-11T09:00:40.896Z,101299.35
2018-09-11T09:03:08.839Z,101306.61
2018-09-11T09:05:36.609Z,101306.38
2018-09-11T09:08:04.573Z,101308.03
2018-09-11T09:10:32.443Z,101304.28
2018-09-11T09:13:00.328Z,101304.39
2018-09-11T09:15:28.214Z,101297.33
2018-09-11T09:17:56.061Z,101303.72
2018-09-11T09:20:23.923Z,101290.17
2018-09-11T09:22:51.800Z,101283.14
2018-09-11T09:25:19.580Z,101288.31
2018-09-11T09:27:47.389Z,101283.97
2018-09-11T09:30:15.321Z,101286.95
2018-09-11T09:32:43.144Z,101286.64
2018-09-11T09:35:10.940Z,101282.72
2018-09-11T09:37:38.716Z,101277.92
2018-09-11T09:40:06.595Z,101282.22
2018-09-11T09:42:34.391Z,101276.42
2018-09-11T09:45:02.316Z,101269.24
2018-09-11T09:47:30.100Z,101278.92
2018-09-11T09:49:57.968Z,101276.55
2018-09-11T09:52:25.836Z,101275.70
2018-09-11T09:54:53.654Z,101283.06
2018-09-11T09:57:21.508Z,101281.97
2018-09-11T09:59:49.348Z,101271.80
2018-09-11T10:02:23.203Z,101270.41
2018-09-11T10:04:51.844Z,101270.28
2018-09-11T10:07:20.163Z,101270.08
2018-09-11T10:09:47.972Z,101259.25
2018-09-11T10:12:16.987Z,101260.17
2018-09-11T10:14:44.892Z,101249.75
2018-09-11T10:17:12.725Z,101244.20
2018-09-11T10:19:40.680Z,101248.33
2018-09-11T10:22:08.551Z,101259.11
2018-09-11T10:24:36.417Z,101255.43
2018-09-11T10:27:04.548Z,101247.16
2018-09-11T10:29:32.467Z,101247.11
2018-09-11T10:32:00.362Z,101243.30
2018-09-11T10:34:28.219Z,101237.19
2018-09-11T10:36:56.032Z,101237.44
2018-09-11T10:39:23.858Z,101238.41
2018-09-11T10:41:51.690Z,101227.14
2018-09-11T10:44:19.591Z,101225.20
2018-09-11T10:46:48.309Z,101218.27
2018-09-11T10:49:16.178Z,101205.45
2018-09-11T10:51:44.100Z,101203.10
2018-09-11T10:54:11.956Z,101198.15
2018-09-11T10:56:39.780Z,101194.33
2018-09-11T10:59:07.540Z,101192.48
2018-09-11T11:01:35.418Z,101187.42
2018-09-11T11:04:03.284Z,101184.08
2018-09-11T11:06:31.143Z,101185.33
2018-09-11T11:08:58.964Z,101179.79
2018-09-11T11:11:26.828Z,101184.97
2018-09-11T11:13:54.655Z,101180.71
2018-09-11T11:16:22.429Z,101179.28
2018-09-11T11:18:50.323Z,101173.83
2018-09-11T11:21:18.168Z,101164.70
2018-09-11T11:23:46.083Z,101160.84
2018-09-11T11:26:13.916Z,101166.83
2018-09-11T11:28:41.775Z,101156.61
2018-09-11T11:31:09.527Z,101168.49
2018-09-11T11:33:37.332Z,101155.95
2018-09-11T11:36:08.300Z,101162.70
2018-09-11T11:38:36.211Z,101154.41
2018-09-11T11:41:06.061Z,101157.34
2018-09-11T11:43:33.852Z,101155.97
2018-09-11T11:46:01.708Z,101148.50
2018-09-11T11:48:30.336Z,101144.47
2018-09-11T11:50:58.179Z,101154.33
2018-09-11T11:53:26.012Z,101147.09
2018-09-11T11:55:53.799Z,101138.48
2018-09-11T11:58:21.616Z,101138.66
2018-09-11T12:00:49.538Z,101140.62
2018-09-11T12:03:17.360Z,101143.31
2018-09-11T12:05:45.297Z,101139.61
2018-09-11T12:08:13.124Z,101145.25
2018-09-11T12:10:40.951Z,101135.50
2018-09-11T12:13:08.701Z,101128.73
2018-09-11T12:15:36.528Z,101132.95
2018-09-11T12:18:04.360Z,101131.14
2018-09-11T12:20:32.110Z,101123.31
2018-09-11T12:23:00.029Z,101128.75
2018-09-11T12:25:27.901Z,101124.48
2018-09-11T12:27:55.647Z,101125.73
2018-09-11T12:30:23.551Z,101111.87
2018-09-11T12:32:51.351Z,101113.69
2018-09-11T12:35:19.121Z,101119.17
2018-09-11T12:37:46.972Z,101109.16
2018-09-11T12:40:21.193Z,101106.14
2018-09-11T12:42:49.169Z,101116.77
2018-09-11T12:45:16.944Z,101110.27
2018-09-11T12:47:45.165Z,101108.00
2018-09-11T12:50:12.687Z,101099.86
2018-09-11T12:52:40.619Z,101090.27
2018-09-11T12:55:08.755Z,101090.02
2018-09-11T12:57:36.667Z,101090.27
2018-09-11T13:00:05.713Z,101087.72
2018-09-11T13:02:33.620Z,101086.33
2018-09-11T13:05:06.120Z,101084.30
2018-09-11T13:07:34.165Z,101082.88
2018-09-11T13:10:02.038Z,101094.17
2018-09-11T13:12:29.915Z,101089.17
2018-09-11T13:14:57.905Z,101084.83
2018-09-11T13:17:25.700Z,101071.34
2018-09-11T13:19:53.496Z,101075.09
2018-09-11T13:22:21.356Z,101068.36
2018-09-11T13:24:49.268Z,101068.80
2018-09-11T13:27:17.404Z,101065.13
2018-09-11T13:29:45.304Z,101070.77
2018-09-11T13:32:13.111Z,101065.23
2018-09-11T13:34:40.947Z,101056.33
2018-09-11T13:37:08.789Z,101058.13
2018-09-11T13:39:36.665Z,101066.56
2018-09-11T13:42:04.511Z,101056.33
2018-09-11T13:44:32.348Z,101054.30
2018-09-11T13:47:01.379Z,101049.54
2018-09-11T13:49:29.152Z,101055.00
2018-09-11T13:51:56.943Z,101044.09
2018-09-11T13:54:24.701Z,101039.38
2018-09-11T13:56:52.568Z,101059.19
2018-09-11T13:59:20.448Z,101055.67
2018-09-11T14:01:48.349Z,101049.30
2018-09-11T14:04:16.201Z,101042.42
2018-09-11T14:06:43.998Z,101044.88
2018-09-11T14:09:14.881Z,101035.74
2018-09-11T14:11:43.867Z,101037.97
2018-09-11T14:14:11.689Z,101035.16
2018-09-11T14:16:40.592Z,101030.66
2018-09-11T14:19:09.051Z,101032.54
2018-09-11T14:21:36.948Z,101035.78
2018-09-11T14:24:04.892Z,101037.93
2018-09-11T14:26:32.768Z,101034.97
2018-09-11T14:29:00.907Z,101027.03
2018-09-11T14:31:28.751Z,101027.27
2018-09-11T14:33:56.528Z,101028.17
2018-09-11T14:36:25.403Z,101029.80
2018-09-11T14:38:53.280Z,101032.81
2018-09-11T14:41:23.579Z,101027.46
2018-09-11T14:43:51.482Z,101031.91
2018-09-11T14:46:19.377Z,101026.17
2018-09-11T14:48:47.510Z,101029.45
2018-09-11T14:51:15.463Z,101021.09
2018-09-11T14:53:43.214Z,101018.31
2018-09-11T14:56:11.041Z,101023.79
2018-09-11T14:58:38.948Z,101028.20
2018-09-11T15:01:06.895Z,101017.81
2018-09-11T15:03:34.713Z,101021.95
2018-09-11T15:06:02.539Z,101014.92
2018-09-11T15:08:30.412Z,101014.66
2018-09-11T15:11:01.699Z,101015.70
2018-09-11T15:13:29.595Z,101015.98
2018-09-11T15:15:57.431Z,101006.02
2018-09-11T15:18:25.257Z,101010.94
2018-09-11T15:20:53.142Z,100998.75
2018-09-11T15:23:20.975Z,100994.64
2018-09-11T15:25:48.757Z,100996.75
2018-09-11T15:28:16.595Z,100994.77
2018-09-11T15:30:44.519Z,100991.12
2018-09-11T15:33:12.604Z,100995.00
2018-09-11T15:35:40.601Z,100989.48
2018-09-11T15:38:08.729Z,100986.44
2018-09-11T15:40:36.581Z,100985.97
2018-09-11T15:43:04.452Z,100988.52
2018-09-11T15:45:32.203Z,100984.80
2018-09-11T15:48:00.039Z,100976.56
2018-09-11T15:50:27.943Z,100975.16
2018-09-11T15:52:58.107Z,100968.44
2018-09-11T15:55:25.897Z,100967.47
2018-09-11T15:57:53.768Z,100963.98
2018-09-11T16:00:21.539Z,100962.75
2018-09-11T16:02:49.359Z,100957.94
2018-09-11T16:05:17.224Z,100958.38
2018-09-11T16:07:45.135Z,100955.21
2018-09-11T16:10:13.032Z,100951.23
2018-09-11T16:12:40.834Z,100950.37
2018-09-11T16:15:08.788Z,100944.98
2018-09-11T16:17:36.563Z,100945.05
2018-09-11T16:20:05.634Z,100944.12
2018-09-11T16:22:33.571Z,100949.03
2018-09-11T16:25:01.327Z,100938.22
2018-09-11T16:27:29.176Z,100941.14
2018-09-11T16:29:57.121Z,100935.48
2018-09-11T16:32:24.900Z,100932.63
2018-09-11T16:34:52.752Z,100933.41
2018-09-11T16:37:20.616Z,100929.30
2018-09-11T16:39:48.494Z,100928.75
2018-09-11T16:42:16.273Z,100930.07
2018-09-11T16:44:44.076Z,100924.09
2018-09-11T16:47:11.917Z,100930.71
2018-09-11T16:49:39.727Z,100922.00
2018-09-11T16:52:07.563Z,100927.21
2018-09-11T16:54:35.436Z,100926.92
2018-09-11T16:57:03.244Z,100930.83
2018-09-11T16:59:31.076Z,100938.06
2018-09-11T17:01:58.943Z,100940.80
2018-09-11T17:04:26.886Z,100941.16
2018-09-11T17:06:54.697Z,100932.84
2018-09-11T17:09:22.518Z,100940.16
2018-09-11T17:11:50.385Z,100935.00
2018-09-11T17:14:18.272Z,100936.81
2018-09-11T17:16:46.116Z,100933.28
2018-09-11T17:19:17.154Z,100933.55
2018-09-11T17:21:45.080Z,100937.34
2018-09-11T17:24:12.829Z,100931.09
2018-09-11T17:26:40.610Z,100931.02
2018-09-11T17:29:08.435Z,100935.47
2018-09-11T17:31:36.240Z,100936.06
2018-09-11T17:34:04.098Z,100944.70
2018-09-11T17:36:31.981Z,100938.34
2018-09-11T17:38:59.807Z,100944.83
2018-09-11T17:41:27.643Z,100946.33
2018-09-11T17:43:55.472Z,100950.20
2018-09-11T17:46:23.359Z,100950.49
2018-09-11T17:48:51.300Z,100951.31
2018-09-11T17:51:19.052Z,100953.52
2018-09-11T17:53:46.933Z,100952.70
2018-09-11T17:56:14.772Z,100961.19
2018-09-11T17:58:42.530Z,100959.20
2018-09-11T18:01:10.359Z,100965.16
2018-09-11T18:03:38.231Z,100967.84
2018-09-11T18:06:06.230Z,100966.22
2018-09-11T18:08:34.063Z,100971.61
2018-09-11T18:11:01.983Z,100974.30
2018-09-11T18:13:29.780Z,100981.58
2018-09-11T18:15:57.624Z,100975.66
2018-09-11T18:18:25.500Z,100978.98
2018-09-11T18:20:53.307Z,100981.05
2018-09-11T18:23:21.204Z,100984.56
2018-09-11T18:25:49.235Z,100980.63
2018-09-11T18:28:17.059Z,100989.37
2018-09-11T18:30:44.888Z,100986.28
2018-09-11T18:33:12.931Z,100990.70
2018-09-11T18:35:40.808Z,100990.47
2018-09-11T18:38:08.702Z,100993.36
2018-09-11T18:40:36.571Z,101001.42
2018-09-11T18:43:04.434Z,101002.39
2018-09-11T18:45:32.328Z,100999.70
2018-09-11T18:48:00.160Z,101002.42
2018-09-11T18:50:28.012Z,101006.66
2018-09-11T18:52:56.405Z,101009.98
2018-09-11T18:55:24.355Z,101009.16
2018-09-11T18:57:53.543Z,101010.00
2018-09-11T19:00:26.919Z,101007.31
2018-09-11T19:02:54.867Z,101008.55
2018-09-11T19:05:23.873Z,101005.77
2018-09-11T19:07:51.895Z,101006.34
2018-09-11T19:10:20.255Z,101007.26
2018-09-11T19:12:48.042Z,101012.69
2018-09-11T19:15:22.295Z,101008.75
2018-09-11T19:17:57.280Z,101017.13
2018-09-11T19:20:33.747Z,101020.32
2018-09-11T19:23:06.398Z,101026.98
2018-09-11T19:25:34.307Z,101031.30
2018-09-11T19:28:02.606Z,101030.05
2018-09-11T19:30:37.058Z,101022.66
2018-09-11T19:33:06.013Z,101028.12
2018-09-11T19:35:35.081Z,101025.90
2018-09-11T19:38:03.253Z,101023.91
2018-09-11T19:40:34.948Z,101030.34
2018-09-11T19:43:02.841Z,101022.12
2018-09-11T19:45:33.190Z,101022.92
2018-09-11T19:48:01.135Z,101020.20
2018-09-11T19:50:29.194Z,101024.21
2018-09-11T19:52:57.031Z,101025.89
2018-09-11T19:55:24.863Z,101028.75
2018-09-11T19:57:54.050Z,101024.00
2018-09-11T20:00:24.943Z,101028.35
2018-09-11T20:02:54.106Z,101028.08
2018-09-11T20:05:28.152Z,101031.03
2018-09-11T20:08:02.948Z,101036.20
2018-09-11T20:10:41.301Z,101036.32
2018-09-11T20:13:09.326Z,101036.89
2018-09-11T20:15:37.672Z,101037.52
2018-09-11T20:18:07.939Z,101045.34
2018-09-11T20:20:39.650Z,101041.91
2018-09-11T20:23:07.609Z,101041.66
2018-09-11T20:25:35.451Z,101044.08
2018-09-11T20:28:03.300Z,101051.11
2018-09-11T20:30:31.132Z,101047.05
2018-09-11T20:32:58.940Z,101038.21
2018-09-11T20:35:26.801Z,101039.86
2018-09-11T20:37:54.693Z,101042.97
2018-09-11T20:40:22.571Z,101043.30
2018-09-11T20:42:50.386Z,101041.22
2018-09-11T20:45:18.217Z,101039.44
2018-09-11T20:47:46.039Z,101038.59
2018-09-11T20:50:13.902Z,101041.72
2018-09-11T20:52:46.328Z,101050.07
2018-09-11T20:55:14.219Z,101040.95
2018-09-11T20:57:42.055Z,101042.80
2018-09-11T21:00:09.988Z,101052.59
2018-09-11T21:02:37.817Z,101054.53
2018-09-11T21:05:05.667Z,101050.05
2018-09-11T21:07:33.486Z,101057.25
2018-09-11T21:10:01.285Z,101062.91
2018-09-11T21:12:29.063Z,101057.60
2018-09-11T21:14:56.918Z,101057.34
2018-09-11T21:17:24.807Z,101055.73
2018-09-11T21:19:52.622Z,101054.40
2018-09-11T21:22:20.479Z,101047.71
2018-09-11T21:24:48.231Z,101051.90
2018-09-11T21:27:16.071Z,101050.77
2018-09-11T21:29:43.848Z,101060.45
2018-09-11T21:32:11.629Z,101061.56
2018-09-11T21:34:42.650Z,101057.14
2018-09-11T21:37:10.476Z,101055.73
2018-09-11T21:39:38.264Z,101060.13
2018-09-11T21:42:06.460Z,101059.00
2018-09-11T21:44:34.243Z,101062.92
2018-09-11T21:47:02.087Z,101063.47
2018-09-11T21:49:29.923Z,101061.81
2018-09-11T21:51:57.907Z,101062.60
2018-09-11T21:54:25.763Z,101074.70
2018-09-11T21:56:53.653Z,101067.23
2018-09-11T21:59:21.500Z,101061.68
2018-09-11T22:01:51.724Z,101069.45
2018-09-11T22:04:20.555Z,101070.48
2018-09-11T22:06:48.424Z,101067.13
2018-09-11T22:09:16.292Z,101064.61
2018-09-11T22:11:44.093Z,101069.04
2018-09-11T22:14:11.967Z,101067.90
2018-09-11T22:16:39.774Z,101067.63
2018-09-11T22:19:07.888Z,101062.81
2018-09-11T22:21:36.353Z,101062.81
2018-09-11T22:24:04.403Z,101070.55
2018-09-11T22:26:32.600Z,101070.20
2018-09-11T22:29:00.468Z,101072.64
2018-09-11T22:31:28.589Z,101070.98
2018-09-11T22:33:56.535Z,101065.77
2018-09-11T22:36:24.787Z,101067.06
2018-09-11T22:38:52.606Z,101075.50
2018-09-11T22:41:20.532Z,101069.28
2018-09-11T22:43:48.336Z,101075.52
2018-09-11T22:46:16.272Z,101071.81
2018-09-11T22:48:44.097Z,101076.18
2018-09-11T22:51:11.908Z,101073.42
2018-09-11T22:53:39.820Z,101076.18
2018-09-11T22:56:07.699Z,101069.05
2018-09-11T22:58:35.476Z,101072.47
2018-09-11T23:01:03.337Z,101061.80
2018-09-11T23:03:31.304Z,101060.42
2018-09-11T23:05:59.290Z,101054.36
2018-09-11T23:08:27.127Z,101055.83
2018-09-11T23:10:54.937Z,101051.16
2018-09-11T23:13:22.896Z,101062.12
2018-09-11T23:15:50.755Z,101057.91
2018-09-11T23:18:18.632Z,101058.95
2018-09-11T23:20:48.265Z,101058.46
2018-09-11T23:23:16.015Z,101057.34
2018-09-11T23:25:47.319Z,101057.22
2018-09-11T23:28:15.143Z,101057.77
2018-09-11T23:30:43.088Z,101054.39
2018-09-11T23:33:10.916Z,101055.09
2018-09-11T23:35:38.798Z,101054.47
2018-09-11T23:38:06.697Z,101039.68
2018-09-11T23:40:34.524Z,101043.31
2018-09-11T23:43:02.418Z,101043.86
2018-09-11T23:45:30.248Z,101046.83
2018-09-11T23:47:58.075Z,101048.06
2018-09-11T23:50:26.036Z,101043.37
2018-09-11T23:52:53.933Z,101038.48
2018-09-11T23:55:21.918Z,101050.85
2018-09-11T23:57:50.041Z,101050.80
